METAR Data
IDs: Format: Raw Decoded Include TAF

Data at: 0430 UTC 26 Sep 2018

KUGN 260355Z AUTO 31009G15KT 10SM OVC017 17/14 A2990 RMK AO2 SLP115 T01720144
KUGN 260255Z AUTO 30009G15KT 10SM FEW014 BKN020 OVC033 17/15 A2985 RMK AO2 SLP101 T01720150 53022
KUGN 260213Z AUTO VRB04KT 10SM OVC030 18/15 A2983 RMK AO2 T01780150
KUGN 260155Z AUTO 30005KT 10SM FEW008 OVC027 18/16 A2982 RMK AO2 PRESRR SLP091 LAST T01780156
KUGN 260151Z AUTO 30006KT 10SM SCT008 OVC027 18/16 A2982 RMK AO2 LAST
KUGN 260128Z AUTO VRB04KT 10SM BKN009 BKN014 18/17 A2979 RMK AO2 LAST T01830172
KUGN 260120Z AUTO VRB03KT 10SM SCT009 BKN014 18/17 A2979 RMK AO2 LAST T01830167
KUGN 260055Z VRB05KT 10SM BKN033 BKN040 18/17 A2979 RMK AO2 SLP079 T01830167
KUGN 252355Z 23008KT 10SM BKN050 BKN100 19/17 A2979 RMK AO2 RAE32 SLP083 TS E MOV E P0002 60013 T01890167 10272 20189 53011
KUGN 252308Z 22012KT 4SM -RA BR FEW005 BKN055 OVC090 19/18 A2978 RMK AO2 LTG DSNT E TS E MOV E P0001 T01940183
KUGN 252300Z 21015KT 4SM -RA BR FEW050 BKN090 OVC110 20/19 A2978 RMK AO2 LTG DSNT NE-S PRESRR P0001 T02000189
KUGN 252255Z 22006KT 1 1/2SM VCTS RA BR SCT050 BKN090 OVC110 20/19 A2977 RMK AO2 PK WND 22027/2235 LTG DSNT NE-S RAB15 TSB23E44 SLP075 TS OVHD MOV E P0011 T02000189
KUGN 252250Z VRB04KT 1 1/2SM VCTS -RA BR SCT055 SCT070 OVC095 20/19 A2976 RMK AO2 PK WND 22027/2235 LTG DSNT NE-S RAB15 TSB23E44 TS OVHD MOV E P0009
KUGN 252233Z 24012G20KT 1 1/2SM TSRA BKN055 BKN070 OVC090 23/18 A2981 RMK AO2 LTG DSNT SE-SW RAB15 TSB23 PRESRR P0003 T02280178
KUGN 252223Z 28004KT 9SM -TSRA BKN055 OVC095 23/18 A2978 RMK AO2 LTG DSNT S AND SW RAB15 TSB23 P0000 T02330178
KUGN 252155Z 23005KT 10SM FEW100 24/18 A2976 RMK AO2 LTG DSNT SW AND W SLP069 T02440178
KUGN 252055Z 24007KT 10SM SCT044 BKN060 BKN080 26/17 A2976 RMK AO2 SLP067 T02560172 56029
KUGN 251955Z 20010KT 10SM BKN048 26/17 A2976 RMK AO2 SLP067 T02610167
KUGN 251855Z VRB05KT 10SM SCT038 BKN055 26/19 A2982 RMK AO2 SLP088 T02560189
KUGN 251755Z 18010KT 10SM BKN035 25/17 A2985 RMK AO2 SLP096 T02500167 10261 20183 56012
KUGN 251655Z 18012KT 10SM BKN035 26/19 A2985 RMK AO2 SLP099 T02560194
KUGN 251555Z COR 22007KT 10SM BKN035 24/19 A2986 RMK AO2 SLP101 T02440194
KUGN 251455Z 24005KT 9SM FEW014 SCT042 BKN060 23/19 A2988 RMK AO2 SLP110 T02280194 58004
KUGN 251355Z 21006KT 7SM SCT055 22/19 A2989 RMK AO2 SLP112 T02170194
KUGN 251255Z 22004KT 4SM BR FEW013 BKN055 BKN070 20/19 A2989 RMK AO2 SLP114 T02000189
KUGN 251155Z 17003KT 3SM BR BKN017 18/18 A2989 RMK AO2 SLP116 60000 T01780178 10200 20178 52001
KUGN 251151Z 18003KT 3SM BR BKN017 18/18 A2989 RMK AO2
KUGN 251132Z 20004KT 4SM BR SCT018 SCT080 18/17 A2989 RMK AO2 T01830172
KUGN 251055Z 21003KT 4SM BR BKN019 19/18 A2989 RMK AO2 RAB02E12 SLP115 P0000 T01890178
KUGN 251046Z 22004KT 3SM BR SCT019 18/18 A2989 RMK AO2 RAB02E12 P0000 T01830178
KUGN 251027Z AUTO 00000KT 2 1/2SM BR FEW021 SCT060 18/17 A2988 RMK AO2 RAB02E12 P0000 T01780172
KUGN 250955Z AUTO 17003KT 4SM BR SCT028 SCT040 BKN048 18/18 A2988 RMK AO2 SLP111 T01830178
KUGN 250855Z AUTO 20003KT 5SM BR SCT042 BKN048 BKN060 18/17 A2988 RMK AO2 SLP112 T01830172 58002
KUGN 250755Z AUTO 00000KT 6SM BR FEW045 OVC070 19/18 A2989 RMK AO2 SLP114 T01940178
KUGN 250655Z AUTO 23003KT 7SM OVC055 19/18 A2990 RMK AO2 SLP118 T01940178
KUGN 250555Z AUTO 18003KT 7SM OVC055 19/18 A2989 RMK AO2 SLP114 T01940183 10211 20189 402110161 58010
KUGN 250455Z AUTO 00000KT 7SM FEW015 BKN038 OVC060 19/18 A2991 RMK AO2 SLP121 T01940178
KUGN 250355Z AUTO 17007KT 8SM BKN021 OVC065 20/18 A2992 RMK AO2 SLP123 T02000183
KUGN 250255Z AUTO 16004KT 8SM FEW024 OVC048 20/18 A2992 RMK AO2 SLP125 T02000183 55000
KUGN 250155Z AUTO 17004KT 9SM OVC036 19/18 A2992 RMK AO2 SLP126 T01940178
KUGN 250106Z 14004KT 9SM FEW022 SCT027 OVC038 19/18 A2992 RMK AO2 T01940178
KUGN 250055Z COR 14004KT 10SM BKN021 BKN027 OVC038 19/18 A2992 RMK AO2 SLP124 LAST T01940178
KUGN 242355Z 15005KT 10SM OVC016 19/17 A2992 RMK AO2 SLP126 T01940172 10194 20183 56008
KUGN 242309Z 14005KT 10SM SCT011 OVC019 19/17 A2992 RMK AO2 T01940172
KUGN 242255Z 14005KT 8SM BKN011 OVC017 19/17 A2993 RMK AO2 SLP128 T01940172
KUGN 242218Z 12006KT 10SM OVC014 19/17 A2993 RMK AO2 T01940167
KUGN 242155Z 11006KT 10SM OVC017 19/17 A2993 RMK AO2 SLP129 T01940167
KUGN 242055Z 11007KT 9SM SCT010 OVC016 19/16 A2995 RMK AO2 SLP135 T01890161 56025
KUGN 242046Z 10007KT 6SM HZ SCT010 OVC016 19/16 A2995 RMK AO2 T01890161
KUGN 241955Z COR 09009KT 9SM OVC009 19/16 A2997 RMK AO2 CIG 008V012 SLP142 T01890161
KUGN 241938Z 10008KT 8SM OVC009 19/16 A2998 RMK AO2 T01890161
KUGN 241855Z 13008KT 10SM OVC011 19/16 A3000 RMK AO2 SLP152 T01890156
KUGN 241814Z 11007G15KT 10SM OVC009 19/16 A3001 RMK AO2 T01890156
KUGN 241802Z 10010KT 10SM OVC010 19/16 A3002 RMK AO2 T01890156
KUGN 241755Z 12009KT 10SM OVC009 19/16 A3002 RMK AO2 SLP161 T01890156 10200 20161 58021
KUGN 241655Z 11010KT 10SM BKN011 19/16 A3005 RMK AO2 SLP169 T01890156
KUGN 241647Z 09011KT 10SM BKN013 19/16 A3005 RMK AO2 T01890156